Pidcoke, Texas
Current Conditions -  °F | °C
As of 12:35 AM on Monday 24 Nov 2014 (Local Time) from KGOP Reporting Station
Clear Clear  
Wind Chill: 45°   Ceiling: Unl
Heat Index: 48°   Visibility: 10mi
Dew Point: 36°   Wind: 8mph
Humidity: 62%   Direction: 350°N
Pressure: 29.91"   Gusts: NA
Location:  31.392°N, 97.7452°W
Report Text: KGOP 240635Z AUTO 35007KT 10SM CLR 09/02 A2991 RMK AO2 PWINO
Loading
Personal Weather Stations






























Interactive Weather Map New forecast layout! Learn more

10-Day Weather Forecast

Advertisements
Track Severe Weather on mobile